KOAR/OAR METAR and TAF weather

Enter ICAO airport designator
Station Type Date Time Source
KOAR METAR 2024/04/17 19:35 UTC NOAA

KOAR 171935Z AUTO 29005KT 10SM CLR 19/13 A3002 RMK AO2


Station Type Date Time Source
KOAR Decoded METAR 2024/04/17 19:35 UTC NOAA

Station name not available
Apr 17, 2024 - 03:35 PM EDT / 2024.04.17 1935 UTC
Wind: from the WNW (290 degrees) at 6 MPH (5 KT):0
Visibility: 10 mile(s):0
Sky conditions: clear
Temperature: 66 F (19 C)
Dew Point: 55 F (13 C)
Relative Humidity: 68%
Pressure (altimeter): 30.02 in. Hg (1016 hPa)
ob: KOAR 171935Z AUTO 29005KT 10SM CLR 19/13 A3002 RMK AO2
cycle: 19

Station Type Date Time Source
KOAR TAF UTC NOAA

Error!

Example: see airport list